1995 MARLENE (1995088S10078)


On this page: IBTrACS data - Map and Plots - Positions - Intensities - Original source data

Summary

Start Mar 28
End Apr 11
Basin SI
LMI 125 kt
Sources jtwc_sh
reunion
neumann
In WMO? Yes
Previous storm 1995 HSK1995 (SP)
Previous in basin 1995 LIDY (SI)
Concurrent storms 1995 MARLENE (SI)
1995 CHLOE (SI)
1995 HSK2195 (SP)
Next in basin 1995 CHLOE (SI)
Next storm 1995 CHLOE (SI)

top of page IBTrACS Data: File Access

top of page HURSAT Data: File Access

Image of storm

top of page Plots:

Map of storm track will not appear if FTP is down
Time series of cyclone Maximum Sustained Wind will not appear if FTP is down
Time series of cyclone Minimum Central Pressure will not appear if FTP is down

top of page Track Data:Position

jtwc_sh reunion neumann
Date Lat Lon Lat Lon Lat Lon
1995-03-28 18:00:00 -9.6 77.5 -9.6 77.5
1995-03-29 00:00:00 -9.8 77.6 -9.8 77.6
1995-03-29 06:00:00 -10.0 77.5 -10.0 77.5
1995-03-29 12:00:00 -10.2 77.3 -10.6 79.1 -10.2 77.3
1995-03-29 18:00:00 -10.4 77.0 -10.8 78.0 -10.4 77.0
1995-03-30 00:00:00 -10.6 76.7 -10.9 77.5 -10.6 76.7
1995-03-30 06:00:00 -10.8 76.2 -11.1 76.9 -10.8 76.2
1995-03-30 12:00:00 -11.0 75.6 -11.2 76.0 -11.0 75.6
1995-03-30 18:00:00 -11.3 75.0 -11.4 75.3 -11.3 75.0
1995-03-31 00:00:00 -11.6 74.2 -11.6 74.6 -11.6 74.2
1995-03-31 06:00:00 -11.9 73.4 -12.3 74.0 -11.9 73.4
1995-03-31 12:00:00 -12.1 72.5 -12.4 72.7 -12.1 72.5
1995-03-31 18:00:00 -12.3 71.6 -12.4 71.5 -12.3 71.6
1995-04-01 00:00:00 -12.4 70.8 -12.5 70.8 -12.4 70.8
1995-04-01 06:00:00 -12.5 70.2 -12.6 70.2 -12.5 70.2
1995-04-01 12:00:00 -12.6 69.8 -12.6 69.7 -12.6 69.8
1995-04-01 18:00:00 -12.8 69.6 -12.6 69.5 -12.8 69.6
1995-04-02 00:00:00 -13.1 69.5 -13.0 69.5 -13.1 69.5
1995-04-02 06:00:00 -13.5 69.4 -13.5 69.5 -13.5 69.4
1995-04-02 12:00:00 -14.0 69.5 -14.1 69.4 -14.0 69.5
1995-04-02 18:00:00 -14.6 69.4 -14.6 69.4 -14.6 69.4
1995-04-03 00:00:00 -15.2 69.3 -15.3 69.3 -15.2 69.3
1995-04-03 06:00:00 -15.7 69.2 -15.8 69.2 -15.7 69.2
1995-04-03 12:00:00 -16.1 69.3 -16.2 69.2 -16.1 69.3
1995-04-03 18:00:00 -16.4 69.4 -16.4 69.4 -16.4 69.4
jtwc_sh reunion neumann
1995-04-04 00:00:00 -16.6 69.5 -16.8 69.4 -16.6 69.5
1995-04-04 06:00:00 -16.8 69.4 -17.1 69.4 -16.8 69.4
1995-04-04 12:00:00 -17.0 69.3 -17.4 69.5 -17.0 69.3
1995-04-04 18:00:00 -17.1 69.3 -17.7 69.6 -17.1 69.3
1995-04-05 00:00:00 -17.2 69.3 -17.7 69.5 -17.2 69.3
1995-04-05 06:00:00 -17.3 69.2 -17.7 69.3 -17.3 69.2
1995-04-05 12:00:00 -17.4 69.2 -17.6 69.0 -17.4 69.2
1995-04-05 18:00:00 -17.5 69.1 -17.5 68.8 -17.5 69.1
1995-04-06 00:00:00 -17.6 69.1 -17.4 68.8 -17.6 69.1
1995-04-06 06:00:00 -17.7 69.0 -17.3 68.7 -17.7 69.0
1995-04-06 12:00:00 -17.8 69.0 -17.3 68.6 -17.8 69.0
1995-04-06 18:00:00 -17.9 68.9 -17.4 68.5 -17.9 68.9
1995-04-07 00:00:00 -18.0 68.9 -17.4 68.4 -18.0 68.9
1995-04-07 06:00:00 -18.1 69.0 -17.5 68.7 -18.1 69.0
1995-04-07 12:00:00 -18.3 69.1 -18.1 68.8 -18.3 69.1
1995-04-07 18:00:00 -18.5 69.3 -18.3 68.8 -18.5 69.3
1995-04-08 00:00:00 -18.7 69.6 -18.4 69.3 -18.7 69.6
1995-04-08 06:00:00 -18.9 70.0 -18.5 69.9 -18.9 70.0
1995-04-08 12:00:00 -19.2 70.5 -18.5 70.7 -19.2 70.5
1995-04-08 18:00:00 -19.4 71.4 -18.5 71.8 -19.4 71.4
1995-04-09 00:00:00 -19.5 72.5 -18.8 73.1 -19.5 72.5
1995-04-09 06:00:00 -19.6 73.7 -19.1 74.4 -19.6 73.7
1995-04-09 12:00:00 -19.7 75.1 -19.1 75.2 -19.7 75.1
1995-04-09 18:00:00 -19.9 76.7 -19.1 76.4 -19.9 76.7
jtwc_sh reunion neumann
1995-04-10 00:00:00 -20.2 78.5 -18.8 78.4 -20.2 78.5
1995-04-10 06:00:00 -20.6 80.6 -19.0 80.8 -20.6 80.6
1995-04-10 12:00:00 -21.1 83.1 -21.0 83.0 -21.1 83.1
1995-04-10 18:00:00 -21.8 86.1 -23.8 84.6 -21.8 86.1
1995-04-11 00:00:00 -22.7 89.8 -27.3 86.5 -22.7 89.8

top of pageTrack Data:Intensity

jtwc_sh reunion neumann
Date Wind Pres Wind Pres Wind Pres
1995-03-28 18:00:00 15. 15.
1995-03-29 00:00:00 15. 15.
1995-03-29 06:00:00 20. 20.
1995-03-29 12:00:00 20. 20. 1004. 20.
1995-03-29 18:00:00 20. 25. 1000. 20.
1995-03-30 00:00:00 25. 28. 998. 25.
1995-03-30 06:00:00 25. 30. 995. 25.
1995-03-30 12:00:00 25. 30. 995. 25.
1995-03-30 18:00:00 30. 35. 992. 30.
1995-03-31 00:00:00 35. 40. 988. 35.
1995-03-31 06:00:00 40. 45. 982. 40.
1995-03-31 12:00:00 45. 52. 976. 45.
1995-03-31 18:00:00 50. 60. 970. 50.
1995-04-01 00:00:00 55. 70. 960. 55.
1995-04-01 06:00:00 65. 80. 945. 65.
1995-04-01 12:00:00 75. 90. 930. 75.
1995-04-01 18:00:00 85. 95. 925. 85.
1995-04-02 00:00:00 90. 95. 925. 90.
1995-04-02 06:00:00 95. 85. 940. 95.
1995-04-02 12:00:00 100. 75. 955. 100.
1995-04-02 18:00:00 105. 75. 955. 105.
1995-04-03 00:00:00 110. 85. 940. 110.
1995-04-03 06:00:00 115. 90. 930. 115.
1995-04-03 12:00:00 120. 95. 925. 120.
1995-04-03 18:00:00 125. 100. 920. 125.
jtwc_sh reunion neumann
1995-04-04 00:00:00 125. 100. 920. 125.
1995-04-04 06:00:00 115. 100. 920. 115.
1995-04-04 12:00:00 105. 90. 930. 105.
1995-04-04 18:00:00 100. 80. 945. 100.
1995-04-05 00:00:00 95. 70. 960. 95.
1995-04-05 06:00:00 90. 60. 970. 90.
1995-04-05 12:00:00 85. 60. 970. 85.
1995-04-05 18:00:00 80. 60. 970. 80.
1995-04-06 00:00:00 75. 60. 970. 75.
1995-04-06 06:00:00 70. 60. 970. 70.
1995-04-06 12:00:00 65. 55. 975. 65.
1995-04-06 18:00:00 60. 50. 980. 60.
1995-04-07 00:00:00 55. 45. 985. 55.
1995-04-07 06:00:00 55. 45. 985. 55.
1995-04-07 12:00:00 50. 45. 985. 50.
1995-04-07 18:00:00 50. 45. 985. 50.
1995-04-08 00:00:00 45. 45. 985. 45.
1995-04-08 06:00:00 45. 38. 990. 45.
1995-04-08 12:00:00 45. 30. 995. 45.
1995-04-08 18:00:00 40. 30. 995. 40.
1995-04-09 00:00:00 40. 30. 995. 40.
1995-04-09 06:00:00 40. 30. 995. 40.
1995-04-09 12:00:00 40. 35. 992. 40.
1995-04-09 18:00:00 35. 35. 992. 35.
jtwc_sh reunion neumann
1995-04-10 00:00:00 35. 35. 992. 35.
1995-04-10 06:00:00 35. 30. 995. 35.
1995-04-10 12:00:00 35. 28. 998. 35.
1995-04-10 18:00:00 30. 25. 1000. 30.
1995-04-11 00:00:00 30. 20. 1004. 30.

top of page Links to source data

Source Source file Format
jtwc_sh bsh191995.txt ATCF
reunion WMO-Best-Tracks.txt:Line=17152:marlene WMO (old format)
neumann tracks.sh:Storm=1033:MARLENE:BSH191995:JTWC HURDAT